Time;durP1;ratioP1;P1;durP2;ratioP2;P2;SDS_P1;SDS_P2;PMS_P1;PMS_P2;Temp;Humidity;BMP_temperature;BMP_pressure;BME280_temperature;BME280_humidity;BME280_pressure;Samples;Min_cycle;Max_cycle;Signal;HPM_P1;HPM_P2
2023/06/21 00:00:58;;;;;;;4.53;3.03;;;16.50;99.90;;;;;;5050522;28;20032;-73
2023/06/21 00:03:25;;;;;;;5.53;3.35;;;16.50;99.90;;;;;;5050748;28;20060;-72
2023/06/21 00:05:50;;;;;;;3.42;2.95;;;16.50;99.90;;;;;;5049512;28;20067;-72
2023/06/21 00:08:16;;;;;;;3.42;3.08;;;16.40;99.90;;;;;;5049999;28;20351;-73
2023/06/21 00:10:44;;;;;;;5.05;2.80;;;16.40;99.90;;;;;;5048650;28;20485;-73
2023/06/21 00:13:09;;;;;;;6.22;2.70;;;16.40;99.90;;;;;;5049757;28;20037;-72
2023/06/21 00:15:36;;;;;;;5.00;3.15;;;16.40;99.90;;;;;;5049790;28;20051;-73
2023/06/21 00:18:03;;;;;;;4.70;3.20;;;16.40;99.90;;;;;;5050030;28;20029;-73
2023/06/21 00:20:29;;;;;;;3.45;2.92;;;16.30;99.90;;;;;;5049664;28;20029;-74
2023/06/21 00:22:56;;;;;;;4.40;2.63;;;16.30;99.90;;;;;;5049982;28;20436;-72
2023/06/21 00:25:25;;;;;;;4.43;3.20;;;16.20;99.90;;;;;;5050014;28;20311;-72
2023/06/21 00:27:51;;;;;;;8.10;3.78;;;16.20;99.90;;;;;;5049186;28;20233;-72
2023/06/21 00:30:17;;;;;;;4.15;2.97;;;16.20;99.90;;;;;;5049847;28;20459;-73
2023/06/21 00:32:42;;;;;;;4.85;3.15;;;16.20;99.90;;;;;;5049509;28;20036;-73
2023/06/21 00:35:08;;;;;;;5.40;3.40;;;16.20;99.90;;;;;;5050330;28;20055;-72
2023/06/21 00:37:37;;;;;;;3.90;3.10;;;16.20;99.90;;;;;;5049783;28;20029;-73
2023/06/21 00:40:06;;;;;;;6.35;3.20;;;16.20;99.90;;;;;;5050133;28;20108;-73
2023/06/21 00:42:32;;;;;;;4.18;3.13;;;16.10;99.90;;;;;;5049963;28;20029;-74
2023/06/21 00:44:58;;;;;;;4.93;3.58;;;16.10;99.90;;;;;;5050077;28;20021;-73
2023/06/21 00:47:24;;;;;;;6.43;3.83;;;16.20;99.90;;;;;;5050012;28;20464;-73
2023/06/21 00:49:50;;;;;;;5.05;3.20;;;16.10;99.90;;;;;;5049132;28;20033;-73
2023/06/21 00:52:17;;;;;;;5.22;3.65;;;16.10;99.90;;;;;;5050014;28;20112;-73
2023/06/21 00:54:43;;;;;;;3.75;2.78;;;16.10;99.90;;;;;;5049091;28;20025;-73
2023/06/21 00:57:11;;;;;;;9.07;3.35;;;16.10;99.90;;;;;;5049722;28;20385;-73
2023/06/21 00:59:37;;;;;;;4.80;3.47;;;16.10;99.90;;;;;;5049354;28;20095;-72
2023/06/21 01:02:03;;;;;;;6.25;3.65;;;16.10;99.90;;;;;;5049828;28;20032;-73
2023/06/21 01:04:32;;;;;;;5.07;3.42;;;16.00;99.90;;;;;;5050819;28;20415;-73
2023/06/21 01:07:12;;;;;;;4.50;3.13;;;16.00;99.90;;;;;;5053478;28;20066;-72
2023/06/21 01:09:50;;;;;;;4.43;3.25;;;16.00;99.90;;;;;;5052855;28;20510;-73
2023/06/21 01:12:40;;;;;;;6.50;3.25;;;16.00;99.90;;;;;;5053655;28;20029;-72
2023/06/21 01:15:19;;;;;;;4.35;3.53;;;16.00;99.90;;;;;;5053589;28;20082;-72
2023/06/21 01:17:51;;;;;;;6.40;3.47;;;15.90;99.90;;;;;;5051619;28;20104;-72
2023/06/21 01:20:24;;;;;;;5.50;3.47;;;16.00;99.90;;;;;;5053586;28;20025;-72
2023/06/21 01:23:23;;;;;;;6.88;4.00;;;15.90;99.90;;;;;;5052837;28;20036;-72
2023/06/21 01:26:11;;;;;;;3.92;3.30;;;15.90;99.90;;;;;;5052872;28;20027;-73
2023/06/21 01:29:11;;;;;;;4.90;3.83;;;15.90;99.90;;;;;;5052699;28;20084;-73
2023/06/21 01:31:40;;;;;;;5.70;3.80;;;15.80;99.90;;;;;;5052551;28;20191;-73
2023/06/21 01:34:08;;;;;;;6.05;3.63;;;15.80;99.90;;;;;;5053313;28;20036;-73
2023/06/21 01:36:34;;;;;;;3.85;3.05;;;15.80;99.90;;;;;;5053265;28;20084;-74
2023/06/21 01:39:00;;;;;;;5.00;3.88;;;15.80;99.90;;;;;;5053270;28;20021;-72
2023/06/21 01:41:26;;;;;;;4.97;3.83;;;15.80;99.90;;;;;;5053098;28;20326;-72
2023/06/21 01:43:53;;;;;;;5.55;3.92;;;15.80;99.90;;;;;;5052850;28;20028;-72
2023/06/21 01:46:22;;;;;;;4.78;3.95;;;15.80;99.90;;;;;;5053130;28;20110;-72
2023/06/21 01:48:48;;;;;;;4.90;3.90;;;15.70;99.90;;;;;;5052066;28;20378;-72
2023/06/21 01:51:16;;;;;;;5.97;3.90;;;15.80;99.90;;;;;;5052735;28;20094;-73
2023/06/21 01:53:43;;;;;;;5.65;3.58;;;15.70;99.90;;;;;;5052442;28;20029;-73
2023/06/21 01:56:15;;;;;;;6.63;3.85;;;15.70;99.90;;;;;;5052768;28;20028;-73
2023/06/21 01:58:41;;;;;;;7.68;4.63;;;15.70;99.90;;;;;;5052609;28;20500;-73
2023/06/21 02:01:09;;;;;;;7.05;4.18;;;15.60;99.90;;;;;;5053071;28;20527;-72
2023/06/21 02:03:39;;;;;;;6.30;4.20;;;15.60;99.90;;;;;;5052712;28;20489;-73
2023/06/21 02:06:06;;;;;;;6.25;4.32;;;15.60;99.90;;;;;;5052948;28;20051;-73
2023/06/21 02:08:32;;;;;;;6.38;4.43;;;15.60;99.90;;;;;;5052951;28;20354;-72
2023/06/21 02:11:00;;;;;;;5.18;4.32;;;15.60;99.90;;;;;;5051911;28;20028;-72
2023/06/21 02:13:27;;;;;;;6.85;4.30;;;15.60;99.90;;;;;;5052588;28;20108;-72
2023/06/21 02:15:56;;;;;;;6.53;4.70;;;15.60;99.90;;;;;;5051794;28;20463;-73
2023/06/21 02:18:22;;;;;;;4.93;4.35;;;15.60;99.90;;;;;;5052971;28;20036;-73
2023/06/21 02:20:48;;;;;;;7.97;4.78;;;15.60;99.90;;;;;;5052068;28;20060;-73
2023/06/21 02:23:14;;;;;;;5.90;4.78;;;15.60;99.90;;;;;;5052698;28;20451;-73
2023/06/21 02:25:40;;;;;;;6.43;4.13;;;15.60;99.90;;;;;;5051894;28;20029;-73
2023/06/21 02:28:05;;;;;;;6.38;4.30;;;15.60;99.90;;;;;;5052154;28;20045;-72
2023/06/21 02:30:32;;;;;;;5.70;4.03;;;15.50;99.90;;;;;;5052123;28;20052;-72
2023/06/21 02:32:58;;;;;;;4.68;4.20;;;15.50;99.90;;;;;;5051312;28;20604;-73
2023/06/21 02:35:24;;;;;;;6.25;4.85;;;15.50;99.90;;;;;;5052083;28;20035;-72
2023/06/21 02:37:50;;;;;;;4.97;4.47;;;15.50;99.90;;;;;;5052341;28;20207;-72
2023/06/21 02:40:16;;;;;;;7.28;4.70;;;15.50;99.90;;;;;;5052026;28;20036;-73
2023/06/21 02:42:41;;;;;;;6.78;4.15;;;15.40;99.90;;;;;;5051624;28;20024;-73
2023/06/21 02:45:09;;;;;;;7.70;5.10;;;15.40;99.90;;;;;;5052089;28;20044;-72
2023/06/21 02:47:35;;;;;;;6.55;4.75;;;15.40;99.90;;;;;;5051980;28;20032;-72
2023/06/21 02:50:02;;;;;;;6.93;4.95;;;15.30;99.90;;;;;;5049702;28;20029;-72
2023/06/21 02:52:27;;;;;;;7.72;5.15;;;15.30;99.90;;;;;;5050571;28;20335;-72
2023/06/21 02:54:53;;;;;;;6.25;5.22;;;15.30;99.90;;;;;;5051774;28;20041;-72
2023/06/21 02:57:22;;;;;;;10.27;6.03;;;15.30;99.90;;;;;;5051888;28;20025;-72
2023/06/21 02:59:49;;;;;;;7.30;5.40;;;15.30;99.90;;;;;;5051447;28;20108;-73
2023/06/21 03:02:16;;;;;;;11.75;6.13;;;15.20;99.90;;;;;;5051929;28;20398;-72
2023/06/21 03:04:43;;;;;;;7.60;5.90;;;15.30;99.90;;;;;;5049849;28;20245;-73
2023/06/21 03:07:09;;;;;;;8.60;5.60;;;15.30;99.90;;;;;;5051723;28;20059;-73
2023/06/21 03:09:34;;;;;;;8.80;6.65;;;15.20;99.90;;;;;;5052112;28;20025;-72
2023/06/21 03:12:08;;;;;;;8.73;6.15;;;15.20;99.90;;;;;;5050879;28;20454;-72
2023/06/21 03:14:38;;;;;;;9.50;6.35;;;15.20;99.90;;;;;;5050236;28;20056;-72
2023/06/21 03:17:06;;;;;;;6.53;5.85;;;15.20;99.90;;;;;;5050689;28;20060;-72
2023/06/21 03:19:32;;;;;;;9.73;6.38;;;15.20;99.90;;;;;;5051634;28;20039;-72
2023/06/21 03:21:58;;;;;;;7.07;6.18;;;15.20;99.90;;;;;;5050601;28;20530;-73
2023/06/21 03:24:26;;;;;;;9.82;6.30;;;15.20;99.90;;;;;;5050986;28;20200;-72
2023/06/21 03:26:53;;;;;;;7.90;6.13;;;15.20;99.90;;;;;;5050204;28;20083;-72
2023/06/21 03:29:18;;;;;;;11.13;6.65;;;15.20;99.90;;;;;;5050851;28;20472;-72
2023/06/21 03:31:44;;;;;;;9.88;6.43;;;15.10;99.90;;;;;;5050268;28;20033;-73
2023/06/21 03:34:10;;;;;;;9.10;6.65;;;15.10;99.90;;;;;;5051261;28;20377;-72
2023/06/21 03:36:36;;;;;;;10.55;6.95;;;15.10;99.90;;;;;;5051402;28;20484;-72
2023/06/21 03:39:02;;;;;;;8.32;6.55;;;15.10;99.90;;;;;;5050615;28;20108;-72
2023/06/21 03:41:28;;;;;;;9.63;6.45;;;15.10;99.90;;;;;;5051020;28;20032;-72
2023/06/21 03:43:54;;;;;;;9.63;6.97;;;15.10;99.90;;;;;;5050587;28;20029;-72
2023/06/21 03:46:19;;;;;;;11.05;6.85;;;15.10;99.90;;;;;;5050820;28;20498;-72
2023/06/21 03:48:45;;;;;;;8.38;7.28;;;15.10;99.90;;;;;;5050065;28;20105;-73
2023/06/21 03:51:11;;;;;;;10.77;6.88;;;15.10;99.90;;;;;;5050947;28;20115;-72
2023/06/21 03:53:36;;;;;;;9.95;7.35;;;15.00;99.90;;;;;;5050826;28;20041;-72
2023/06/21 03:56:03;;;;;;;12.18;7.43;;;15.10;99.90;;;;;;5050216;28;20602;-72
2023/06/21 03:58:28;;;;;;;9.40;7.28;;;15.10;99.90;;;;;;5050877;28;20029;-72
2023/06/21 04:00:54;;;;;;;15.00;7.30;;;15.10;99.90;;;;;;5049956;28;20033;-72
2023/06/21 04:03:20;;;;;;;9.65;5.97;;;15.00;99.90;;;;;;5049336;28;20036;-72
2023/06/21 04:05:46;;;;;;;10.18;7.20;;;15.00;99.90;;;;;;5050065;28;20124;-73
2023/06/21 04:08:11;;;;;;;14.50;7.22;;;15.00;99.90;;;;;;5050592;28;20017;-72
2023/06/21 04:10:38;;;;;;;10.25;7.43;;;15.00;99.90;;;;;;5050761;28;20032;-72
2023/06/21 04:13:04;;;;;;;9.50;6.85;;;15.10;99.90;;;;;;5049625;28;20098;-72
2023/06/21 04:15:30;;;;;;;8.27;6.90;;;15.00;99.90;;;;;;5050831;28;20116;-72
2023/06/21 04:17:55;;;;;;;11.20;6.85;;;15.10;99.90;;;;;;5050007;28;20025;-73
2023/06/21 04:20:21;;;;;;;8.45;6.57;;;15.10;99.90;;;;;;5050443;28;20027;-72
2023/06/21 04:22:47;;;;;;;10.75;6.85;;;15.10;99.90;;;;;;5050220;28;20060;-73
2023/06/21 04:25:13;;;;;;;12.63;7.47;;;15.10;99.90;;;;;;5050334;28;20362;-72
2023/06/21 04:27:40;;;;;;;9.02;7.07;;;15.20;99.90;;;;;;5050142;28;20041;-72
2023/06/21 04:30:09;;;;;;;10.40;6.72;;;15.20;99.90;;;;;;5049846;28;20017;-72
2023/06/21 04:32:34;;;;;;;9.05;7.32;;;15.20;99.90;;;;;;5050260;28;20056;-72
2023/06/21 04:35:00;;;;;;;9.93;6.57;;;15.30;99.90;;;;;;5049822;28;20467;-72
2023/06/21 04:37:28;;;;;;;9.18;6.70;;;15.30;99.90;;;;;;5050780;28;20025;-72
2023/06/21 04:39:54;;;;;;;8.80;6.57;;;15.30;99.90;;;;;;5051439;28;20025;-73
2023/06/21 04:42:20;;;;;;;9.43;6.55;;;15.40;99.90;;;;;;5054655;28;20032;-72
2023/06/21 04:44:49;;;;;;;10.05;6.95;;;15.40;99.90;;;;;;5054102;28;20067;-74
2023/06/21 04:47:16;;;;;;;10.48;6.88;;;15.40;99.90;;;;;;5054681;28;20029;-73
2023/06/21 04:49:43;;;;;;;8.30;6.68;;;15.40;99.90;;;;;;5054752;28;20087;-72
2023/06/21 04:52:09;;;;;;;8.55;7.00;;;15.40;99.90;;;;;;5053757;28;20089;-72
2023/06/21 04:54:36;;;;;;;9.13;6.70;;;15.40;99.90;;;;;;5054296;28;20043;-72
2023/06/21 04:57:06;;;;;;;9.10;6.88;;;15.40;99.90;;;;;;5053776;28;20029;-72
2023/06/21 04:59:32;;;;;;;10.77;6.53;;;15.50;99.90;;;;;;5054259;28;20057;-72
2023/06/21 05:01:58;;;;;;;8.82;6.13;;;15.40;99.90;;;;;;5053729;28;20049;-73
2023/06/21 05:04:24;;;;;;;7.13;6.15;;;15.50;99.90;;;;;;5053852;28;20032;-72
2023/06/21 05:06:50;;;;;;;12.63;7.10;;;15.50;99.90;;;;;;5053731;28;20039;-74
2023/06/21 05:09:15;;;;;;;8.20;5.82;;;15.60;99.90;;;;;;5054418;28;20154;-72
2023/06/21 05:11:41;;;;;;;9.48;5.97;;;15.70;99.90;;;;;;5054109;28;20032;-72
2023/06/21 05:14:07;;;;;;;8.68;5.93;;;15.70;99.90;;;;;;5053684;28;20033;-72
2023/06/21 05:16:33;;;;;;;8.70;5.78;;;15.90;99.90;;;;;;5054305;28;20033;-72
2023/06/21 05:18:59;;;;;;;9.40;6.32;;;15.90;99.90;;;;;;5053448;28;20102;-72
2023/06/21 05:21:24;;;;;;;8.07;5.93;;;15.90;99.90;;;;;;5053768;28;20420;-72
2023/06/21 05:23:50;;;;;;;9.30;6.30;;;15.90;99.90;;;;;;5053077;28;20128;-74
2023/06/21 05:26:16;;;;;;;6.60;5.50;;;16.00;99.90;;;;;;5053981;28;20029;-73
2023/06/21 05:28:41;;;;;;;7.80;5.70;;;16.00;99.90;;;;;;5053626;28;20132;-72
2023/06/21 05:31:08;;;;;;;7.28;5.30;;;16.00;99.90;;;;;;5053202;28;20025;-73
2023/06/21 05:33:34;;;;;;;10.23;6.90;;;16.10;99.90;;;;;;5053168;28;20025;-72
2023/06/21 05:36:00;;;;;;;8.60;5.40;;;16.20;99.90;;;;;;5052897;28;20032;-72
2023/06/21 05:38:25;;;;;;;7.13;5.40;;;16.30;99.90;;;;;;5053239;28;20032;-72
2023/06/21 05:40:51;;;;;;;7.72;5.80;;;16.40;99.90;;;;;;5052540;28;20028;-74
2023/06/21 05:43:17;;;;;;;6.63;5.20;;;16.50;99.90;;;;;;5052989;28;20139;-72
2023/06/21 05:45:42;;;;;;;8.88;5.05;;;16.70;99.90;;;;;;5053053;28;20083;-72
2023/06/21 05:48:08;;;;;;;9.88;5.30;;;16.80;99.90;;;;;;5052258;28;20461;-72
2023/06/21 05:50:34;;;;;;;8.70;5.38;;;16.90;99.90;;;;;;5052454;28;20057;-72
2023/06/21 05:53:00;;;;;;;7.72;5.07;;;17.00;99.90;;;;;;5051092;28;20488;-72
2023/06/21 05:55:26;;;;;;;6.80;4.97;;;17.10;99.90;;;;;;5053410;28;20376;-72
2023/06/21 05:57:51;;;;;;;9.60;5.53;;;17.10;99.90;;;;;;5052386;28;20096;-74
2023/06/21 06:00:18;;;;;;;7.15;5.53;;;17.10;99.90;;;;;;5052646;28;20150;-73
2023/06/21 06:02:47;;;;;;;11.43;5.63;;;17.10;99.90;;;;;;5052811;28;20025;-72
2023/06/21 06:05:14;;;;;;;7.40;5.90;;;17.20;99.90;;;;;;5052341;28;20025;-73
2023/06/21 06:07:39;;;;;;;6.68;5.13;;;17.20;99.90;;;;;;5053069;28;20043;-72
2023/06/21 06:10:05;;;;;;;10.65;5.90;;;17.30;99.90;;;;;;5050422;28;20335;-72
2023/06/21 06:12:31;;;;;;;9.57;5.95;;;17.30;99.90;;;;;;5052695;28;20029;-72
2023/06/21 06:14:57;;;;;;;7.65;5.40;;;17.30;99.90;;;;;;5052134;28;20520;-73
2023/06/21 06:17:22;;;;;;;6.40;5.28;;;17.30;99.90;;;;;;5052506;28;20079;-72
2023/06/21 06:19:48;;;;;;;9.98;5.90;;;17.10;99.90;;;;;;5052891;28;20035;-73
2023/06/21 06:22:14;;;;;;;7.88;5.00;;;17.00;99.90;;;;;;5051962;28;20457;-73
2023/06/21 06:24:40;;;;;;;9.63;5.65;;;17.00;99.90;;;;;;5052421;28;20415;-72
2023/06/21 06:27:06;;;;;;;9.98;5.88;;;17.00;99.90;;;;;;5051926;28;20124;-73
2023/06/21 06:29:31;;;;;;;8.00;5.60;;;16.90;99.90;;;;;;5051956;28;20122;-72
2023/06/21 06:31:57;;;;;;;6.03;5.00;;;16.90;99.90;;;;;;5050453;28;20036;-73
2023/06/21 06:34:24;;;;;;;6.35;5.10;;;16.90;99.90;;;;;;5052323;28;20117;-72
2023/06/21 06:36:49;;;;;;;8.93;5.68;;;16.80;99.90;;;;;;5052695;28;20036;-72
2023/06/21 06:39:15;;;;;;;5.70;5.07;;;16.90;99.90;;;;;;5051947;28;20100;-72
2023/06/21 06:41:41;;;;;;;10.70;5.25;;;17.00;99.90;;;;;;5052554;28;20029;-72
2023/06/21 06:44:06;;;;;;;10.20;5.72;;;17.10;99.90;;;;;;5051443;28;20079;-72
2023/06/21 06:46:33;;;;;;;7.70;5.72;;;17.20;99.90;;;;;;5052171;28;20028;-72
2023/06/21 06:48:59;;;;;;;6.50;5.05;;;17.30;99.90;;;;;;5051280;28;20037;-72
2023/06/21 06:51:25;;;;;;;7.05;5.20;;;17.30;99.90;;;;;;5051659;28;20031;-72
2023/06/21 06:53:51;;;;;;;9.45;5.32;;;17.40;99.90;;;;;;5052317;28;20045;-72
2023/06/21 06:56:17;;;;;;;6.30;5.28;;;17.40;99.90;;;;;;5051225;28;20028;-72
2023/06/21 06:58:42;;;;;;;10.98;5.38;;;17.60;99.90;;;;;;5052054;28;20431;-72
2023/06/21 07:01:09;;;;;;;8.27;5.00;;;17.70;99.90;;;;;;5051299;28;20028;-72
2023/06/21 07:03:34;;;;;;;6.03;5.03;;;17.80;99.90;;;;;;5051034;28;20029;-72
2023/06/21 07:06:00;;;;;;;6.78;5.10;;;17.90;99.90;;;;;;5051617;28;20459;-73
2023/06/21 07:08:26;;;;;;;8.13;5.07;;;18.10;99.90;;;;;;5052257;28;20029;-72
2023/06/21 07:10:53;;;;;;;9.07;5.22;;;18.30;99.90;;;;;;5051620;28;20128;-72
2023/06/21 07:13:21;;;;;;;7.75;5.47;;;18.40;99.90;;;;;;5050818;28;20062;-72
2023/06/21 07:15:47;;;;;;;9.32;6.05;;;18.40;99.90;;;;;;5051324;28;20458;-72
2023/06/21 07:18:12;;;;;;;8.18;4.78;;;18.50;99.90;;;;;;5051145;28;20060;-72
2023/06/21 07:20:38;;;;;;;6.57;5.18;;;18.60;99.90;;;;;;5051554;28;20025;-71
2023/06/21 07:23:04;;;;;;;7.00;5.38;;;18.70;99.90;;;;;;5050716;28;20033;-71
2023/06/21 07:25:30;;;;;;;9.57;5.20;;;18.80;99.90;;;;;;5051281;28;20434;-71
2023/06/21 07:27:56;;;;;;;9.82;5.50;;;18.80;99.90;;;;;;5050868;28;20052;-73
2023/06/21 07:30:22;;;;;;;7.45;5.00;;;19.00;99.90;;;;;;5050495;28;20107;-71
2023/06/21 07:32:49;;;;;;;7.88;5.60;;;18.90;99.90;;;;;;5050619;28;20099;-71
2023/06/21 07:35:15;;;;;;;10.48;5.15;;;19.00;99.90;;;;;;5050273;28;20098;-72
2023/06/21 07:37:45;;;;;;;5.55;4.95;;;19.10;99.90;;;;;;5050927;28;20037;-71
2023/06/21 07:40:11;;;;;;;6.57;5.30;;;19.00;99.90;;;;;;5050004;28;20135;-72
2023/06/21 07:42:38;;;;;;;8.60;6.03;;;19.10;99.90;;;;;;5050896;28;20059;-72
2023/06/21 07:45:05;;;;;;;8.13;5.40;;;19.10;99.90;;;;;;5050333;28;20025;-72
2023/06/21 07:47:31;;;;;;;6.93;5.05;;;19.10;99.90;;;;;;5049738;28;20043;-72
2023/06/21 07:49:57;;;;;;;7.70;6.03;;;19.20;99.90;;;;;;5050346;28;20029;-73
2023/06/21 07:52:23;;;;;;;7.85;5.75;;;19.20;99.90;;;;;;5050206;28;20161;-72
2023/06/21 07:54:49;;;;;;;7.03;5.20;;;19.10;99.90;;;;;;5049473;28;20141;-71
2023/06/21 07:57:18;;;;;;;7.13;5.00;;;19.00;99.90;;;;;;5050030;28;20055;-72
2023/06/21 07:59:45;;;;;;;7.20;5.53;;;18.90;99.90;;;;;;5050238;28;20096;-72
2023/06/21 08:02:13;;;;;;;7.13;5.50;;;18.80;99.90;;;;;;5049797;28;20029;-72
2023/06/21 08:04:39;;;;;;;9.43;6.10;;;18.80;99.90;;;;;;5050200;28;20044;-72
2023/06/21 08:07:05;;;;;;;7.45;5.63;;;18.80;99.90;;;;;;5048290;28;20328;-72
2023/06/21 08:09:31;;;;;;;8.05;5.70;;;18.90;99.90;;;;;;5048908;28;20107;-72
2023/06/21 08:11:58;;;;;;;8.48;5.20;;;18.90;99.90;;;;;;5048587;28;20048;-72
2023/06/21 08:14:24;;;;;;;6.72;5.45;;;19.10;99.90;;;;;;5049829;28;20033;-72
2023/06/21 08:16:50;;;;;;;8.32;6.05;;;19.30;99.90;;;;;;5048683;28;20029;-72
2023/06/21 08:19:15;;;;;;;5.25;4.75;;;19.40;99.90;;;;;;5049176;28;20068;-72
2023/06/21 08:21:41;;;;;;;8.32;5.20;;;19.50;99.90;;;;;;5049659;28;20423;-72
2023/06/21 08:24:07;;;;;;;7.22;5.40;;;19.70;99.90;;;;;;5049246;28;20044;-72
2023/06/21 08:26:32;;;;;;;7.32;5.60;;;19.80;99.90;;;;;;5050037;28;20046;-71
2023/06/21 08:28:58;;;;;;;10.27;5.32;;;19.90;99.90;;;;;;5049691;28;20061;-71
2023/06/21 08:31:24;;;;;;;6.95;4.53;;;20.00;99.90;;;;;;5049314;28;20446;-72
2023/06/21 08:33:50;;;;;;;7.20;4.90;;;20.10;99.90;;;;;;5050055;28;20040;-72
2023/06/21 08:36:16;;;;;;;7.85;4.72;;;20.20;99.90;;;;;;5049693;28;20025;-72
2023/06/21 08:38:41;;;;;;;8.55;4.70;;;20.20;99.90;;;;;;5049911;28;20029;-72
2023/06/21 08:41:07;;;;;;;6.07;5.47;;;20.30;99.90;;;;;;5049054;28;20032;-72
2023/06/21 08:43:33;;;;;;;6.85;4.60;;;20.40;99.90;;;;;;5050067;28;20120;-71
2023/06/21 08:46:04;;;;;;;7.05;4.32;;;20.50;99.90;;;;;;5050059;28;20322;-72
2023/06/21 08:48:31;;;;;;;7.07;5.10;;;20.40;99.90;;;;;;5050140;28;20116;-71
2023/06/21 08:51:03;;;;;;;8.15;4.97;;;20.40;99.90;;;;;;5049650;28;20161;-70
2023/06/21 08:53:31;;;;;;;;;;;20.40;99.90;;;;;;5050567;28;20029;-71
2023/06/21 08:56:00;;;;;;;4.88;4.25;;;20.60;99.90;;;;;;5049741;28;20393;-72
2023/06/21 08:58:29;;;;;;;6.20;4.28;;;20.70;99.90;;;;;;5048955;28;20412;-72
2023/06/21 09:00:59;;;;;;;8.73;5.07;;;20.80;99.90;;;;;;5049527;28;20021;-71
2023/06/21 09:03:39;;;;;;;7.78;5.07;;;20.80;99.90;;;;;;5048713;28;20090;-73
2023/06/21 09:06:13;;;;;;;11.77;4.85;;;21.00;99.90;;;;;;5047227;28;20037;-73
2023/06/21 09:08:41;;;;;;;8.45;4.28;;;21.00;99.90;;;;;;5047820;28;20029;-72
2023/06/21 09:11:09;;;;;;;4.63;4.20;;;21.00;99.90;;;;;;5048339;28;20032;-73
2023/06/21 09:13:37;;;;;;;7.80;4.70;;;21.00;99.90;;;;;;5030826;28;20075;-71
2023/06/21 09:16:03;;;;;;;5.22;4.47;;;21.00;99.90;;;;;;5047416;28;20361;-74
2023/06/21 09:18:35;;;;;;;5.93;4.47;;;20.90;99.90;;;;;;5049021;28;20037;-72
2023/06/21 09:21:02;;;;;;;5.15;4.50;;;21.00;99.90;;;;;;5049262;28;20438;-72
2023/06/21 09:23:28;;;;;;;6.35;4.38;;;20.90;99.90;;;;;;5048534;28;20032;-72
2023/06/21 09:25:55;;;;;;;7.85;5.05;;;20.90;99.90;;;;;;5050534;28;20032;-72
2023/06/21 09:28:20;;;;;;;6.38;4.15;;;21.10;99.90;;;;;;5051836;28;20068;-72
2023/06/21 09:30:46;;;;;;;5.28;4.63;;;21.30;99.90;;;;;;5052485;28;20335;-72
2023/06/21 09:33:12;;;;;;;6.55;4.55;;;21.20;99.90;;;;;;5052182;28;20522;-73
2023/06/21 09:35:39;;;;;;;6.40;4.72;;;21.20;99.90;;;;;;5052913;28;20451;-72
2023/06/21 09:38:28;;;;;;;5.85;4.43;;;21.20;99.90;;;;;;5052457;28;20414;-74
2023/06/21 09:40:54;;;;;;;5.78;4.40;;;21.30;99.90;;;;;;5052927;28;20083;-72
2023/06/21 09:43:21;;;;;;;5.53;4.38;;;21.40;99.90;;;;;;5052244;28;20033;-73
2023/06/21 09:46:08;;;;;;;7.20;4.40;;;21.40;99.90;;;;;;5052935;28;20029;-73
2023/06/21 09:48:35;;;;;;;6.40;4.55;;;21.40;99.90;;;;;;5052590;28;20025;-73
2023/06/21 09:51:02;;;;;;;6.07;4.30;;;21.50;99.90;;;;;;5052587;28;20101;-72
2023/06/21 09:53:28;;;;;;;4.60;4.20;;;21.70;99.90;;;;;;5051940;28;20033;-73
2023/06/21 09:55:59;;;;;;;6.68;4.63;;;21.80;99.90;;;;;;5052445;28;20386;-72
2023/06/21 09:58:25;;;;;;;6.05;4.93;;;21.80;99.90;;;;;;5052011;28;20108;-73
2023/06/21 10:00:51;;;;;;;6.55;4.75;;;21.90;99.90;;;;;;5052087;28;20495;-73
2023/06/21 10:03:22;;;;;;;5.63;4.03;;;21.70;99.90;;;;;;5051761;28;20032;-73
2023/06/21 10:05:58;;;;;;;8.45;4.45;;;21.80;99.90;;;;;;5052626;28;20017;-73
2023/06/21 10:08:29;;;;;;;5.72;4.80;;;21.80;99.90;;;;;;5052124;28;20412;-73
2023/06/21 10:10:55;;;;;;;5.38;4.38;;;21.90;99.90;;;;;;5052524;28;20021;-73
2023/06/21 10:13:32;;;;;;;6.30;4.63;;;22.00;99.90;;;;;;5050293;28;20098;-72
2023/06/21 10:16:01;;;;;;;6.75;4.30;;;22.20;99.90;;;;;;5052223;28;20154;-73
2023/06/21 10:18:27;;;;;;;5.10;4.55;;;22.50;99.90;;;;;;5051151;28;20168;-72
2023/06/21 10:20:56;;;;;;;5.10;4.43;;;22.70;99.90;;;;;;5051921;28;20036;-73
2023/06/21 10:23:28;;;;;;;6.30;4.30;;;22.80;99.90;;;;;;5051287;28;20051;-73
2023/06/21 10:25:56;;;;;;;5.65;4.53;;;22.90;99.90;;;;;;5051431;28;20459;-73
2023/06/21 10:28:26;;;;;;;4.68;4.25;;;22.80;99.90;;;;;;5051116;28;20365;-73
2023/06/21 10:30:56;;;;;;;5.55;4.15;;;22.80;99.90;;;;;;5051364;28;20025;-73
2023/06/21 10:33:23;;;;;;;5.53;4.18;;;22.70;99.90;;;;;;5050992;28;20105;-73
2023/06/21 10:35:53;;;;;;;7.50;4.50;;;22.50;99.90;;;;;;5051134;28;20041;-73
2023/06/21 10:38:38;;;;;;;7.10;4.60;;;22.30;99.90;;;;;;5051271;28;20025;-73
2023/06/21 10:41:05;;;;;;;4.32;3.90;;;22.30;99.90;;;;;;5051331;28;20347;-72
2023/06/21 10:43:32;;;;;;;6.53;4.43;;;22.60;99.90;;;;;;5050703;28;20077;-73
2023/06/21 10:46:00;;;;;;;5.45;4.40;;;22.80;99.90;;;;;;5050835;28;20036;-73
2023/06/21 10:48:27;;;;;;;5.22;4.38;;;22.80;99.90;;;;;;5050820;28;20029;-73
2023/06/21 10:50:52;;;;;;;5.63;4.53;;;22.70;99.90;;;;;;5051038;28;20040;-73
2023/06/21 10:53:19;;;;;;;4.82;4.38;;;22.70;99.90;;;;;;5050549;28;20442;-73
2023/06/21 10:55:49;;;;;;;5.88;4.47;;;22.70;99.90;;;;;;5051247;28;20055;-73
2023/06/21 10:58:15;;;;;;;4.97;4.43;;;22.80;99.90;;;;;;5048919;28;20036;-73
2023/06/21 11:00:44;;;;;;;5.18;4.13;;;22.90;99.90;;;;;;5050746;28;20119;-73
2023/06/21 11:03:15;;;;;;;5.13;4.35;;;22.80;99.90;;;;;;5050634;28;20104;-75
2023/06/21 11:05:41;;;;;;;5.60;4.55;;;22.70;99.90;;;;;;5050500;28;20100;-73
2023/06/21 11:08:09;;;;;;;5.50;4.57;;;22.60;99.90;;;;;;5050827;28;20526;-73
2023/06/21 11:10:46;;;;;;;5.47;4.55;;;22.60;99.90;;;;;;5050298;28;20073;-73
2023/06/21 11:13:14;;;;;;;4.97;4.47;;;22.30;99.90;;;;;;5049903;28;20098;-75
2023/06/21 11:15:41;;;;;;;4.88;4.30;;;22.20;99.90;;;;;;5049232;28;20037;-73
2023/06/21 11:18:09;;;;;;;5.05;4.40;;;22.20;99.90;;;;;;5050881;28;20033;-73
2023/06/21 11:20:51;;;;;;;7.97;4.90;;;22.30;99.90;;;;;;5050242;28;20481;-73
2023/06/21 11:23:25;;;;;;;5.68;4.60;;;22.30;99.90;;;;;;5050285;28;20108;-74
2023/06/21 11:26:01;;;;;;;6.35;4.68;;;22.30;99.90;;;;;;5050489;28;20102;-73
2023/06/21 11:28:32;;;;;;;7.82;5.10;;;22.30;99.90;;;;;;5048344;28;20057;-74
2023/06/21 11:31:00;;;;;;;4.80;4.30;;;22.40;99.90;;;;;;5049263;28;20033;-73
2023/06/21 11:33:30;;;;;;;7.00;5.13;;;22.50;99.90;;;;;;5049689;28;20095;-73
2023/06/21 11:36:06;;;;;;;5.63;4.68;;;22.50;99.90;;;;;;5050873;28;20033;-73
2023/06/21 11:38:34;;;;;;;6.88;4.70;;;22.40;99.90;;;;;;5049867;28;20650;-73
2023/06/21 11:41:01;;;;;;;5.07;4.47;;;22.30;99.90;;;;;;5050626;28;20035;-72
2023/06/21 11:43:27;;;;;;;5.50;4.32;;;22.50;99.90;;;;;;5049669;28;20079;-72
2023/06/21 11:46:03;;;;;;;4.68;4.10;;;22.70;99.90;;;;;;5050073;28;20068;-72
2023/06/21 11:48:30;;;;;;;5.50;4.25;;;22.80;99.90;;;;;;5049263;28;20443;-72
2023/06/21 11:51:07;;;;;;;6.93;4.47;;;22.90;99.90;;;;;;5050527;28;20036;-72
2023/06/21 11:53:43;;;;;;;4.28;3.58;;;22.90;99.90;;;;;;5048264;28;20478;-72
2023/06/21 11:56:09;;;;;;;4.45;4.05;;;22.80;99.90;;;;;;5050717;28;20078;-72
2023/06/21 11:58:35;;;;;;;6.55;4.43;;;22.70;99.90;;;;;;5050717;28;20083;-72
2023/06/21 12:01:01;;;;;;;4.82;3.95;;;22.80;99.90;;;;;;5049694;28;20482;-72
2023/06/21 12:03:27;;;;;;;5.32;4.47;;;22.90;99.90;;;;;;5050312;28;20029;-72
2023/06/21 12:05:54;;;;;;;7.43;4.35;;;23.00;99.90;;;;;;5050801;28;20166;-72
2023/06/21 12:08:22;;;;;;;5.07;4.10;;;22.90;99.90;;;;;;5050003;28;20033;-73
2023/06/21 12:10:48;;;;;;;8.25;4.45;;;23.00;99.90;;;;;;5050772;28;20036;-72
2023/06/21 12:13:19;;;;;;;5.18;4.10;;;23.10;99.90;;;;;;5050146;28;20130;-74
2023/06/21 12:15:56;;;;;;;5.20;4.70;;;23.10;99.90;;;;;;5051169;28;20049;-72
2023/06/21 12:18:24;;;;;;;4.43;4.03;;;23.00;99.90;;;;;;5050729;28;20053;-73
2023/06/21 12:20:52;;;;;;;3.90;3.50;;;22.90;99.90;;;;;;5050956;28;20497;-73
2023/06/21 12:23:20;;;;;;;4.53;3.90;;;23.00;99.90;;;;;;5050208;28;20037;-73
2023/06/21 12:25:54;;;;;;;6.63;4.10;;;23.10;99.90;;;;;;5050785;28;20039;-73
2023/06/21 12:28:22;;;;;;;4.60;4.00;;;23.10;99.90;;;;;;5049570;28;20063;-74
2023/06/21 12:31:06;;;;;;;4.53;3.85;;;23.10;99.90;;;;;;5050369;28;20123;-73
2023/06/21 12:33:37;;;;;;;6.30;4.30;;;23.10;99.90;;;;;;5049646;28;20044;-72
2023/06/21 12:36:20;;;;;;;5.80;4.47;;;23.00;99.90;;;;;;5050335;28;20139;-72
2023/06/21 12:38:47;;;;;;;5.40;4.40;;;23.00;99.90;;;;;;5050255;28;20028;-71
2023/06/21 12:41:18;;;;;;;6.60;4.35;;;23.10;99.90;;;;;;5050142;28;20037;-72
2023/06/21 12:43:46;;;;;;;5.78;4.05;;;23.30;99.90;;;;;;5048839;28;20414;-72
2023/06/21 12:46:12;;;;;;;5.28;3.42;;;23.30;99.90;;;;;;5049842;28;20090;-72
2023/06/21 12:48:50;;;;;;;4.28;3.55;;;23.30;99.90;;;;;;5049374;28;20025;-72